Terminal Aerodrome Forecast
Issued by NWS

Home | Current Version | Previous Version | Text Only | Print | Product List | Glossary On
Versions: 1 2 3 4 5 6 7 8 9 10 11 12 13 14
000
FTUS46 KLOX 250527
TAFSBA
TAF
KSBA 250527Z 2506/2606 01010KT P6SM BKN200 WS010/36035KT
      TEMPO 2506/2510 01015G25KT
     FM251400 32010KT P6SM BKN200
     FM251800 27015G25KT P6SM BKN200
     FM260100 33012KT P6SM SCT200 WS010/35035KT=

USA.gov is the U.S. government's official web portal to all federal, state and local government web resources and services.